New Kensington, PA (15068)

10:50 PM EDT on August 31, 2015 (GMT -0400)
40 Acres | | Change Station
CLOSE
Current Station
Personal Weather Station
Location: New Kensington, PA
Elevation: 1003 ft
Nearby Weather Stations

Elev 1003 ft 40.58 °N, 79.74 °W | Updated 4 seconds ago

Clear
Clear
71.6 °F
Feels Like 70 °F
N
0.0
Wind Variable Wind from North
Gusts 0.0 mph

Today
High -- | Low -- °F
--% Chance of Precip.
Yesterday
High -- | Low -- °F
Precip. -- in
6:44 AM 7:52 PM
Waning Gibbous, 92% visible
Pressure 30.08 in
Visibility 10.0 miles
Clouds Clear
Heat Index 70 °F
Dew Point 67 °F
Humidity 85%
Rainfall 0.00 in
Snow Depth Not available.
UV 0 out of 12
Pollen 10.50 out of 12
Air Quality Not available.
Flu Activity Not available.
METAR KAGC 010153Z 28004KT 10SM CLR 27/15 A3009 RMK AO2 SLP184 T02670150
Pressure 30.08 in
Visibility 10.0 miles
Clouds Clear
Heat Index 70 °F
Dew Point 67 °F
Humidity 85%
Rainfall 0.00 in
Snow Depth Not available.
UV 0 out of 12
Pollen 10.50 out of 12
Air Quality Not available.
Flu Activity Not available.
METAR KAGC 010153Z 28004KT 10SM CLR 27/15 A3009 RMK AO2 SLP184 T02670150

10-Day Weather Forecast

×

Almanac

Astronomy

Aug. 31, 2015 Rise Set
Actual Time
Civil Twilight
Nautical Twilight
Astronomical Twilight
Moon
Length of Visible Light
Length of Day
Tomorrow will be .
, % of the Moon is Illuminated

Today's Extremes

State Highs State Lows

Community

WunderPhotos

Upload Photos

1,851,459 photos uploaded!

WunderBlogs® & News

Nearby

Air Quality

  Air Quality AQ Index Pollutant
Not available.

Snow Depth

Station Depth Elevation

Earthquake Activity

City Distance Mag. Time & Date
Minimum magnitude displayed is 2.5.

Coastal Water Temperatures

Place Temperature

Stations

Nearby Weather Stations

Station Location Temp. Windchill Dew Point Humidity Wind Precip. Elev Updated Type